Bankersmith, Texas
Current Conditions -  °F | °C
As of 1:15 AM on Saturday 25 Oct 2014 (Local Time) from KT82 Reporting Station
Clear Clear  
Wind Chill: 15°   Ceiling: Unl
Heat Index: 15°   Visibility: 10mi
Dew Point: 13°   Wind: 0mph
Humidity: 91%   Direction: NA
Pressure: 30.18"   Gusts: NA
Location:  30.3069°N, 98.8978°W
Report Text: KT82 250615Z AUTO 00000KT 10SM CLR 15/13 A3018 RMK AO2 T01470132
Loading
Personal Weather Stations






























Interactive Weather Map
Tropical Storm Tracking
New forecast layout! Learn more

10-Day Weather Forecast

Advertisements
Track Severe Weather on mobile